sensor_id;sensor_type;location;lat;lon;timestamp;P1;durP1;ratioP1;P2;durP2;ratioP2
21621;SDS011;10973;46.706;12.340;2022-07-23T00:01:05;14.15;;;12.80;;
21621;SDS011;10973;46.706;12.340;2022-07-23T00:03:32;14.13;;;12.73;;
21621;SDS011;10973;46.706;12.340;2022-07-23T00:05:59;13.10;;;12.10;;
21621;SDS011;10973;46.706;12.340;2022-07-23T00:08:27;14.20;;;12.90;;
21621;SDS011;10973;46.706;12.340;2022-07-23T00:10:55;13.35;;;12.35;;
21621;SDS011;10973;46.706;12.340;2022-07-23T00:13:22;14.90;;;13.50;;
21621;SDS011;10973;46.706;12.340;2022-07-23T00:15:49;14.13;;;13.02;;
21621;SDS011;10973;46.706;12.340;2022-07-23T00:18:16;13.63;;;12.63;;
21621;SDS011;10973;46.706;12.340;2022-07-23T00:20:43;14.57;;;13.35;;
21621;SDS011;10973;46.706;12.340;2022-07-23T00:23:11;13.93;;;12.73;;
21621;SDS011;10973;46.706;12.340;2022-07-23T00:25:38;14.57;;;13.38;;
21621;SDS011;10973;46.706;12.340;2022-07-23T00:28:06;13.85;;;12.75;;
21621;SDS011;10973;46.706;12.340;2022-07-23T00:30:33;13.68;;;12.50;;
21621;SDS011;10973;46.706;12.340;2022-07-23T00:33:02;13.52;;;12.43;;
21621;SDS011;10973;46.706;12.340;2022-07-23T00:35:34;13.90;;;12.55;;
21621;SDS011;10973;46.706;12.340;2022-07-23T00:38:04;14.70;;;13.40;;
21621;SDS011;10973;46.706;12.340;2022-07-23T00:40:31;14.63;;;13.25;;
21621;SDS011;10973;46.706;12.340;2022-07-23T00:43:00;14.35;;;13.05;;
21621;SDS011;10973;46.706;12.340;2022-07-23T00:45:27;14.27;;;12.93;;
21621;SDS011;10973;46.706;12.340;2022-07-23T00:47:56;14.20;;;13.05;;
21621;SDS011;10973;46.706;12.340;2022-07-23T00:50:25;14.80;;;13.63;;
21621;SDS011;10973;46.706;12.340;2022-07-23T00:52:54;14.35;;;13.25;;
21621;SDS011;10973;46.706;12.340;2022-07-23T00:55:22;14.48;;;13.32;;
21621;SDS011;10973;46.706;12.340;2022-07-23T00:57:49;13.60;;;12.57;;
21621;SDS011;10973;46.706;12.340;2022-07-23T01:00:19;14.43;;;13.23;;
21621;SDS011;10973;46.706;12.340;2022-07-23T01:02:46;14.95;;;13.85;;
21621;SDS011;10973;46.706;12.340;2022-07-23T01:05:14;14.75;;;13.48;;
21621;SDS011;10973;46.706;12.340;2022-07-23T01:07:42;15.10;;;13.90;;
21621;SDS011;10973;46.706;12.340;2022-07-23T01:10:10;15.00;;;13.88;;
21621;SDS011;10973;46.706;12.340;2022-07-23T01:12:38;14.52;;;13.32;;
21621;SDS011;10973;46.706;12.340;2022-07-23T01:15:05;15.00;;;13.73;;
21621;SDS011;10973;46.706;12.340;2022-07-23T01:17:33;15.15;;;13.95;;
21621;SDS011;10973;46.706;12.340;2022-07-23T01:20:00;14.60;;;13.40;;
21621;SDS011;10973;46.706;12.340;2022-07-23T01:22:28;14.18;;;12.95;;
21621;SDS011;10973;46.706;12.340;2022-07-23T01:24:56;14.82;;;13.63;;
21621;SDS011;10973;46.706;12.340;2022-07-23T01:27:23;15.07;;;13.70;;
21621;SDS011;10973;46.706;12.340;2022-07-23T01:29:51;14.48;;;13.38;;
21621;SDS011;10973;46.706;12.340;2022-07-23T01:32:19;14.68;;;13.38;;
21621;SDS011;10973;46.706;12.340;2022-07-23T01:34:47;14.85;;;13.75;;
21621;SDS011;10973;46.706;12.340;2022-07-23T01:37:14;15.20;;;13.93;;
21621;SDS011;10973;46.706;12.340;2022-07-23T01:39:42;14.98;;;13.68;;
21621;SDS011;10973;46.706;12.340;2022-07-23T01:42:10;14.77;;;13.68;;
21621;SDS011;10973;46.706;12.340;2022-07-23T01:44:38;15.35;;;14.15;;
21621;SDS011;10973;46.706;12.340;2022-07-23T01:47:06;14.50;;;13.40;;
21621;SDS011;10973;46.706;12.340;2022-07-23T01:49:34;14.65;;;13.55;;
21621;SDS011;10973;46.706;12.340;2022-07-23T01:52:01;15.30;;;13.85;;
21621;SDS011;10973;46.706;12.340;2022-07-23T01:54:29;15.23;;;13.93;;
21621;SDS011;10973;46.706;12.340;2022-07-23T01:57:00;15.10;;;13.85;;
21621;SDS011;10973;46.706;12.340;2022-07-23T01:59:27;14.40;;;13.30;;
21621;SDS011;10973;46.706;12.340;2022-07-23T02:01:55;14.65;;;13.57;;
21621;SDS011;10973;46.706;12.340;2022-07-23T02:04:24;15.70;;;14.23;;
21621;SDS011;10973;46.706;12.340;2022-07-23T02:06:52;15.70;;;14.25;;
21621;SDS011;10973;46.706;12.340;2022-07-23T02:09:20;14.60;;;13.40;;
21621;SDS011;10973;46.706;12.340;2022-07-23T02:11:47;14.50;;;13.07;;
21621;SDS011;10973;46.706;12.340;2022-07-23T02:14:15;16.00;;;14.70;;
21621;SDS011;10973;46.706;12.340;2022-07-23T02:16:43;14.95;;;13.75;;
21621;SDS011;10973;46.706;12.340;2022-07-23T02:19:10;15.23;;;13.82;;
21621;SDS011;10973;46.706;12.340;2022-07-23T02:21:38;15.48;;;14.27;;
21621;SDS011;10973;46.706;12.340;2022-07-23T02:24:06;15.93;;;14.63;;
21621;SDS011;10973;46.706;12.340;2022-07-23T02:26:33;15.93;;;14.48;;
21621;SDS011;10973;46.706;12.340;2022-07-23T02:29:02;15.50;;;14.05;;
21621;SDS011;10973;46.706;12.340;2022-07-23T02:31:30;15.37;;;14.17;;
21621;SDS011;10973;46.706;12.340;2022-07-23T02:33:59;15.40;;;14.10;;
21621;SDS011;10973;46.706;12.340;2022-07-23T02:36:26;15.47;;;14.27;;
21621;SDS011;10973;46.706;12.340;2022-07-23T02:38:54;16.25;;;14.27;;
21621;SDS011;10973;46.706;12.340;2022-07-23T02:41:22;15.80;;;14.47;;
21621;SDS011;10973;46.706;12.340;2022-07-23T02:43:50;15.67;;;14.33;;
21621;SDS011;10973;46.706;12.340;2022-07-23T02:46:18;16.17;;;14.80;;
21621;SDS011;10973;46.706;12.340;2022-07-23T02:48:46;15.38;;;14.18;;
21621;SDS011;10973;46.706;12.340;2022-07-23T02:51:16;15.60;;;14.43;;
21621;SDS011;10973;46.706;12.340;2022-07-23T02:53:47;15.33;;;14.13;;
21621;SDS011;10973;46.706;12.340;2022-07-23T02:56:15;16.20;;;14.73;;
21621;SDS011;10973;46.706;12.340;2022-07-23T02:58:43;16.70;;;15.30;;
21621;SDS011;10973;46.706;12.340;2022-07-23T03:01:11;16.17;;;14.87;;
21621;SDS011;10973;46.706;12.340;2022-07-23T03:03:38;16.03;;;14.60;;
21621;SDS011;10973;46.706;12.340;2022-07-23T03:06:06;16.40;;;14.80;;
21621;SDS011;10973;46.706;12.340;2022-07-23T03:08:34;16.60;;;15.00;;
21621;SDS011;10973;46.706;12.340;2022-07-23T03:11:01;15.73;;;14.53;;
21621;SDS011;10973;46.706;12.340;2022-07-23T03:13:29;15.60;;;14.40;;
21621;SDS011;10973;46.706;12.340;2022-07-23T03:15:57;16.47;;;15.17;;
21621;SDS011;10973;46.706;12.340;2022-07-23T03:18:24;17.07;;;15.37;;
21621;SDS011;10973;46.706;12.340;2022-07-23T03:20:52;17.50;;;16.10;;
21621;SDS011;10973;46.706;12.340;2022-07-23T03:23:20;16.23;;;14.77;;
21621;SDS011;10973;46.706;12.340;2022-07-23T03:25:48;16.43;;;15.27;;
21621;SDS011;10973;46.706;12.340;2022-07-23T03:28:20;23.00;;;20.40;;
21621;SDS011;10973;46.706;12.340;2022-07-23T03:30:47;19.50;;;17.67;;
21621;SDS011;10973;46.706;12.340;2022-07-23T03:33:16;17.07;;;15.67;;
21621;SDS011;10973;46.706;12.340;2022-07-23T03:35:45;17.13;;;15.63;;
21621;SDS011;10973;46.706;12.340;2022-07-23T03:38:13;15.90;;;14.50;;
21621;SDS011;10973;46.706;12.340;2022-07-23T03:40:42;16.10;;;14.70;;
21621;SDS011;10973;46.706;12.340;2022-07-23T03:43:10;16.10;;;14.63;;
21621;SDS011;10973;46.706;12.340;2022-07-23T03:45:37;16.70;;;15.40;;
21621;SDS011;10973;46.706;12.340;2022-07-23T03:48:05;15.90;;;14.63;;
21621;SDS011;10973;46.706;12.340;2022-07-23T03:50:33;17.30;;;15.63;;
21621;SDS011;10973;46.706;12.340;2022-07-23T03:53:00;16.33;;;14.70;;
21621;SDS011;10973;46.706;12.340;2022-07-23T03:55:28;17.77;;;16.07;;
21621;SDS011;10973;46.706;12.340;2022-07-23T03:57:55;16.23;;;14.83;;
21621;SDS011;10973;46.706;12.340;2022-07-23T04:00:23;15.43;;;14.07;;
21621;SDS011;10973;46.706;12.340;2022-07-23T04:02:51;16.90;;;15.37;;
21621;SDS011;10973;46.706;12.340;2022-07-23T04:05:18;16.63;;;15.30;;
21621;SDS011;10973;46.706;12.340;2022-07-23T04:07:46;16.77;;;15.37;;
21621;SDS011;10973;46.706;12.340;2022-07-23T04:10:13;16.37;;;14.93;;
21621;SDS011;10973;46.706;12.340;2022-07-23T04:12:41;16.67;;;15.23;;
21621;SDS011;10973;46.706;12.340;2022-07-23T04:15:09;16.33;;;15.00;;
21621;SDS011;10973;46.706;12.340;2022-07-23T04:17:36;17.73;;;16.17;;
21621;SDS011;10973;46.706;12.340;2022-07-23T04:20:04;18.03;;;16.37;;
21621;SDS011;10973;46.706;12.340;2022-07-23T04:22:32;16.93;;;15.50;;
21621;SDS011;10973;46.706;12.340;2022-07-23T04:25:00;18.77;;;17.17;;
21621;SDS011;10973;46.706;12.340;2022-07-23T04:27:27;17.70;;;16.20;;
21621;SDS011;10973;46.706;12.340;2022-07-23T04:29:55;17.87;;;16.17;;
21621;SDS011;10973;46.706;12.340;2022-07-23T04:32:22;17.67;;;16.07;;
21621;SDS011;10973;46.706;12.340;2022-07-23T04:34:50;17.50;;;16.00;;
21621;SDS011;10973;46.706;12.340;2022-07-23T04:37:17;16.70;;;15.30;;
21621;SDS011;10973;46.706;12.340;2022-07-23T04:39:45;24.13;;;21.93;;
21621;SDS011;10973;46.706;12.340;2022-07-23T04:42:12;18.77;;;17.00;;
21621;SDS011;10973;46.706;12.340;2022-07-23T04:44:40;18.60;;;16.77;;
21621;SDS011;10973;46.706;12.340;2022-07-23T04:47:08;16.97;;;15.53;;
21621;SDS011;10973;46.706;12.340;2022-07-23T04:49:35;17.23;;;15.73;;
21621;SDS011;10973;46.706;12.340;2022-07-23T04:52:03;17.37;;;15.80;;
21621;SDS011;10973;46.706;12.340;2022-07-23T04:54:31;16.77;;;15.27;;
21621;SDS011;10973;46.706;12.340;2022-07-23T04:56:58;17.90;;;16.37;;
21621;SDS011;10973;46.706;12.340;2022-07-23T04:59:26;19.57;;;17.50;;
21621;SDS011;10973;46.706;12.340;2022-07-23T05:01:53;18.30;;;16.73;;
21621;SDS011;10973;46.706;12.340;2022-07-23T05:04:21;20.33;;;18.63;;
21621;SDS011;10973;46.706;12.340;2022-07-23T05:06:49;17.83;;;10.13;;
21621;SDS011;10973;46.706;12.340;2022-07-23T05:09:18;7.63;;;6.87;;
21621;SDS011;10973;46.706;12.340;2022-07-23T05:11:46;13.83;;;5.40;;
21621;SDS011;10973;46.706;12.340;2022-07-23T05:14:14;12.37;;;4.80;;
21621;SDS011;10973;46.706;12.340;2022-07-23T05:16:43;4.57;;;3.37;;
21621;SDS011;10973;46.706;12.340;2022-07-23T05:19:10;6.10;;;3.60;;
21621;SDS011;10973;46.706;12.340;2022-07-23T05:21:38;4.03;;;3.33;;
21621;SDS011;10973;46.706;12.340;2022-07-23T05:24:06;4.07;;;3.40;;
21621;SDS011;10973;46.706;12.340;2022-07-23T05:26:34;8.70;;;3.83;;
21621;SDS011;10973;46.706;12.340;2022-07-23T05:29:02;6.13;;;3.90;;
21621;SDS011;10973;46.706;12.340;2022-07-23T05:31:40;4.33;;;2.80;;
21621;SDS011;10973;46.706;12.340;2022-07-23T05:34:08;3.93;;;3.00;;
21621;SDS011;10973;46.706;12.340;2022-07-23T05:36:42;5.67;;;2.43;;
21621;SDS011;10973;46.706;12.340;2022-07-23T05:39:12;2.80;;;2.50;;
21621;SDS011;10973;46.706;12.340;2022-07-23T05:41:39;2.03;;;1.93;;
21621;SDS011;10973;46.706;12.340;2022-07-23T05:44:08;2.00;;;1.90;;
21621;SDS011;10973;46.706;12.340;2022-07-23T05:46:35;2.70;;;2.50;;
21621;SDS011;10973;46.706;12.340;2022-07-23T05:49:03;3.00;;;2.77;;
21621;SDS011;10973;46.706;12.340;2022-07-23T05:51:31;7.37;;;3.33;;
21621;SDS011;10973;46.706;12.340;2022-07-23T05:53:58;3.37;;;3.07;;
21621;SDS011;10973;46.706;12.340;2022-07-23T05:56:26;3.77;;;3.17;;
21621;SDS011;10973;46.706;12.340;2022-07-23T05:58:54;2.90;;;2.70;;
21621;SDS011;10973;46.706;12.340;2022-07-23T06:01:22;3.00;;;2.80;;
21621;SDS011;10973;46.706;12.340;2022-07-23T06:03:49;3.97;;;2.60;;
21621;SDS011;10973;46.706;12.340;2022-07-23T06:06:16;3.93;;;2.40;;
21621;SDS011;10973;46.706;12.340;2022-07-23T06:08:44;2.50;;;2.40;;
21621;SDS011;10973;46.706;12.340;2022-07-23T06:11:11;2.73;;;2.53;;
21621;SDS011;10973;46.706;12.340;2022-07-23T06:13:38;3.07;;;2.80;;
21621;SDS011;10973;46.706;12.340;2022-07-23T06:16:05;3.37;;;2.83;;
21621;SDS011;10973;46.706;12.340;2022-07-23T06:18:34;2.77;;;2.57;;
21621;SDS011;10973;46.706;12.340;2022-07-23T06:21:01;4.53;;;3.80;;
21621;SDS011;10973;46.706;12.340;2022-07-23T06:23:48;3.97;;;3.60;;
21621;SDS011;10973;46.706;12.340;2022-07-23T06:26:15;4.57;;;4.10;;
21621;SDS011;10973;46.706;12.340;2022-07-23T06:28:43;2.67;;;2.57;;
21621;SDS011;10973;46.706;12.340;2022-07-23T06:31:10;4.10;;;2.57;;
21621;SDS011;10973;46.706;12.340;2022-07-23T06:33:37;3.57;;;3.00;;
21621;SDS011;10973;46.706;12.340;2022-07-23T06:36:05;2.70;;;2.50;;
21621;SDS011;10973;46.706;12.340;2022-07-23T06:38:33;2.77;;;2.57;;
21621;SDS011;10973;46.706;12.340;2022-07-23T06:41:00;3.67;;;2.87;;
21621;SDS011;10973;46.706;12.340;2022-07-23T06:43:29;6.77;;;4.27;;
21621;SDS011;10973;46.706;12.340;2022-07-23T06:45:57;6.80;;;6.00;;
21621;SDS011;10973;46.706;12.340;2022-07-23T06:48:25;4.70;;;4.40;;
21621;SDS011;10973;46.706;12.340;2022-07-23T06:50:52;4.77;;;4.20;;
21621;SDS011;10973;46.706;12.340;2022-07-23T06:53:19;5.20;;;4.80;;
21621;SDS011;10973;46.706;12.340;2022-07-23T06:55:46;3.80;;;3.50;;
21621;SDS011;10973;46.706;12.340;2022-07-23T06:58:14;3.90;;;2.67;;
21621;SDS011;10973;46.706;12.340;2022-07-23T07:00:41;2.53;;;2.33;;
21621;SDS011;10973;46.706;12.340;2022-07-23T07:03:08;2.27;;;2.17;;
21621;SDS011;10973;46.706;12.340;2022-07-23T07:05:36;2.90;;;2.70;;
21621;SDS011;10973;46.706;12.340;2022-07-23T07:08:03;3.73;;;2.60;;
21621;SDS011;10973;46.706;12.340;2022-07-23T07:10:30;2.70;;;2.40;;
21621;SDS011;10973;46.706;12.340;2022-07-23T07:12:58;2.53;;;2.33;;
21621;SDS011;10973;46.706;12.340;2022-07-23T07:15:26;2.40;;;2.20;;
21621;SDS011;10973;46.706;12.340;2022-07-23T07:17:53;3.47;;;2.40;;
21621;SDS011;10973;46.706;12.340;2022-07-23T07:20:22;2.57;;;2.37;;
21621;SDS011;10973;46.706;12.340;2022-07-23T07:22:49;2.77;;;2.60;;
21621;SDS011;10973;46.706;12.340;2022-07-23T07:25:16;2.63;;;2.43;;
21621;SDS011;10973;46.706;12.340;2022-07-23T07:27:44;2.83;;;2.50;;
21621;SDS011;10973;46.706;12.340;2022-07-23T07:30:11;2.50;;;2.30;;
21621;SDS011;10973;46.706;12.340;2022-07-23T07:32:39;2.30;;;2.10;;
21621;SDS011;10973;46.706;12.340;2022-07-23T07:35:24;2.30;;;2.15;;
21621;SDS011;10973;46.706;12.340;2022-07-23T07:37:54;2.40;;;2.30;;
21621;SDS011;10973;46.706;12.340;2022-07-23T07:40:22;2.23;;;2.07;;
21621;SDS011;10973;46.706;12.340;2022-07-23T07:42:52;2.33;;;2.23;;
21621;SDS011;10973;46.706;12.340;2022-07-23T07:45:21;3.00;;;2.30;;
21621;SDS011;10973;46.706;12.340;2022-07-23T07:47:50;2.23;;;2.10;;
21621;SDS011;10973;46.706;12.340;2022-07-23T07:50:19;2.30;;;2.10;;
21621;SDS011;10973;46.706;12.340;2022-07-23T07:52:48;2.20;;;2.10;;
21621;SDS011;10973;46.706;12.340;2022-07-23T07:55:15;2.70;;;2.50;;
21621;SDS011;10973;46.706;12.340;2022-07-23T07:57:43;2.30;;;2.20;;
21621;SDS011;10973;46.706;12.340;2022-07-23T08:00:15;2.73;;;2.50;;
21621;SDS011;10973;46.706;12.340;2022-07-23T08:02:44;2.53;;;2.43;;
21621;SDS011;10973;46.706;12.340;2022-07-23T08:05:21;2.70;;;2.60;;
21621;SDS011;10973;46.706;12.340;2022-07-23T08:07:55;2.78;;;2.67;;
21621;SDS011;10973;46.706;12.340;2022-07-23T08:10:24;3.03;;;2.83;;
21621;SDS011;10973;46.706;12.340;2022-07-23T08:12:55;3.43;;;3.10;;
21621;SDS011;10973;46.706;12.340;2022-07-23T08:15:24;3.37;;;3.07;;
21621;SDS011;10973;46.706;12.340;2022-07-23T08:17:54;3.10;;;2.90;;
21621;SDS011;10973;46.706;12.340;2022-07-23T08:20:23;3.60;;;3.30;;
21621;SDS011;10973;46.706;12.340;2022-07-23T08:25:28;4.07;;;3.70;;
21621;SDS011;10973;46.706;12.340;2022-07-23T08:27:58;4.17;;;3.87;;
21621;SDS011;10973;46.706;12.340;2022-07-23T08:30:27;4.40;;;3.70;;
21621;SDS011;10973;46.706;12.340;2022-07-23T08:33:02;3.93;;;3.63;;
21621;SDS011;10973;46.706;12.340;2022-07-23T08:38:05;4.03;;;3.77;;
21621;SDS011;10973;46.706;12.340;2022-07-23T08:40:36;4.13;;;3.73;;
21621;SDS011;10973;46.706;12.340;2022-07-23T08:43:13;3.77;;;3.47;;
21621;SDS011;10973;46.706;12.340;2022-07-23T08:45:44;3.60;;;3.30;;
21621;SDS011;10973;46.706;12.340;2022-07-23T08:48:15;3.20;;;3.00;;
21621;SDS011;10973;46.706;12.340;2022-07-23T08:50:48;2.93;;;2.73;;
21621;SDS011;10973;46.706;12.340;2022-07-23T08:53:19;2.97;;;2.77;;
21621;SDS011;10973;46.706;12.340;2022-07-23T08:55:49;3.13;;;2.83;;
21621;SDS011;10973;46.706;12.340;2022-07-23T08:58:19;3.77;;;2.70;;
21621;SDS011;10973;46.706;12.340;2022-07-23T09:00:53;2.60;;;2.50;;
21621;SDS011;10973;46.706;12.340;2022-07-23T09:03:23;2.57;;;2.47;;
21621;SDS011;10973;46.706;12.340;2022-07-23T09:05:54;2.43;;;2.30;;
21621;SDS011;10973;46.706;12.340;2022-07-23T09:08:23;2.57;;;2.37;;
21621;SDS011;10973;46.706;12.340;2022-07-23T09:11:01;2.78;;;2.58;;
21621;SDS011;10973;46.706;12.340;2022-07-23T09:16:08;2.58;;;2.42;;
21621;SDS011;10973;46.706;12.340;2022-07-23T09:18:48;2.33;;;2.22;;
21621;SDS011;10973;46.706;12.340;2022-07-23T09:21:23;2.30;;;2.20;;
21621;SDS011;10973;46.706;12.340;2022-07-23T09:24:03;2.90;;;2.70;;
21621;SDS011;10973;46.706;12.340;2022-07-23T09:34:30;2.78;;;2.60;;
21621;SDS011;10973;46.706;12.340;2022-07-23T09:37:13;2.53;;;2.42;;
21621;SDS011;10973;46.706;12.340;2022-07-23T09:39:46;2.60;;;2.50;;
21621;SDS011;10973;46.706;12.340;2022-07-23T09:42:19;2.63;;;2.53;;
21621;SDS011;10973;46.706;12.340;2022-07-23T09:44:55;2.40;;;2.30;;
21621;SDS011;10973;46.706;12.340;2022-07-23T09:47:26;2.80;;;2.65;;
21621;SDS011;10973;46.706;12.340;2022-07-23T09:52:29;2.75;;;2.60;;
21621;SDS011;10973;46.706;12.340;2022-07-23T09:55:03;2.50;;;2.40;;
21621;SDS011;10973;46.706;12.340;2022-07-23T09:57:32;2.65;;;2.55;;
21621;SDS011;10973;46.706;12.340;2022-07-23T10:00:01;2.85;;;2.75;;
21621;SDS011;10973;46.706;12.340;2022-07-23T10:02:34;2.60;;;2.50;;
21621;SDS011;10973;46.706;12.340;2022-07-23T10:05:03;2.67;;;2.58;;
21621;SDS011;10973;46.706;12.340;2022-07-23T10:07:33;4.25;;;2.67;;
21621;SDS011;10973;46.706;12.340;2022-07-23T10:10:06;2.67;;;2.58;;
21621;SDS011;10973;46.706;12.340;2022-07-23T10:12:34;2.30;;;2.20;;
21621;SDS011;10973;46.706;12.340;2022-07-23T10:15:03;2.40;;;2.22;;
21621;SDS011;10973;46.706;12.340;2022-07-23T10:17:32;2.78;;;2.58;;
21621;SDS011;10973;46.706;12.340;2022-07-23T10:20:00;2.67;;;2.53;;
21621;SDS011;10973;46.706;12.340;2022-07-23T10:22:34;2.58;;;2.40;;
21621;SDS011;10973;46.706;12.340;2022-07-23T10:34:34;2.50;;;2.40;;
21621;SDS011;10973;46.706;12.340;2022-07-23T10:37:42;2.65;;;2.45;;
21621;SDS011;10973;46.706;12.340;2022-07-23T10:40:18;2.63;;;2.47;;
21621;SDS011;10973;46.706;12.340;2022-07-23T10:42:47;2.53;;;2.42;;
21621;SDS011;10973;46.706;12.340;2022-07-23T10:45:27;3.50;;;2.50;;
21621;SDS011;10973;46.706;12.340;2022-07-23T10:48:13;2.42;;;2.30;;
21621;SDS011;10973;46.706;12.340;2022-07-23T10:51:06;2.50;;;2.40;;
21621;SDS011;10973;46.706;12.340;2022-07-23T10:59:23;2.53;;;2.40;;
21621;SDS011;10973;46.706;12.340;2022-07-23T11:01:51;2.55;;;2.45;;
21621;SDS011;10973;46.706;12.340;2022-07-23T11:04:18;2.45;;;2.35;;
21621;SDS011;10973;46.706;12.340;2022-07-23T11:15:20;2.95;;;2.85;;
21621;SDS011;10973;46.706;12.340;2022-07-23T11:20:18;3.22;;;3.03;;
21621;SDS011;10973;46.706;12.340;2022-07-23T11:22:51;3.40;;;3.13;;
21621;SDS011;10973;46.706;12.340;2022-07-23T11:27:50;3.47;;;3.28;;
21621;SDS011;10973;46.706;12.340;2022-07-23T11:35:35;3.40;;;3.20;;
21621;SDS011;10973;46.706;12.340;2022-07-23T11:38:16;3.30;;;3.10;;
21621;SDS011;10973;46.706;12.340;2022-07-23T11:40:50;3.35;;;3.15;;
21621;SDS011;10973;46.706;12.340;2022-07-23T11:43:22;4.43;;;3.13;;
21621;SDS011;10973;46.706;12.340;2022-07-23T11:45:51;3.17;;;2.97;;
21621;SDS011;10973;46.706;12.340;2022-07-23T11:48:25;3.38;;;3.08;;
21621;SDS011;10973;46.706;12.340;2022-07-23T11:50:55;3.53;;;3.33;;
21621;SDS011;10973;46.706;12.340;2022-07-23T11:53:28;3.58;;;3.38;;
21621;SDS011;10973;46.706;12.340;2022-07-23T11:56:08;3.38;;;3.10;;
21621;SDS011;10973;46.706;12.340;2022-07-23T11:58:38;3.95;;;3.65;;
21621;SDS011;10973;46.706;12.340;2022-07-23T12:01:20;3.42;;;3.15;;
21621;SDS011;10973;46.706;12.340;2022-07-23T12:03:50;3.83;;;3.50;;
21621;SDS011;10973;46.706;12.340;2022-07-23T12:06:18;3.80;;;3.53;;
21621;SDS011;10973;46.706;12.340;2022-07-23T12:08:46;3.63;;;3.33;;
21621;SDS011;10973;46.706;12.340;2022-07-23T12:11:13;3.60;;;3.38;;
21621;SDS011;10973;46.706;12.340;2022-07-23T12:13:41;3.90;;;3.60;;
21621;SDS011;10973;46.706;12.340;2022-07-23T12:16:08;3.72;;;3.53;;
21621;SDS011;10973;46.706;12.340;2022-07-23T12:18:35;3.58;;;3.28;;
21621;SDS011;10973;46.706;12.340;2022-07-23T12:21:03;5.80;;;3.47;;
21621;SDS011;10973;46.706;12.340;2022-07-23T12:23:31;3.40;;;3.17;;
21621;SDS011;10973;46.706;12.340;2022-07-23T12:26:00;3.80;;;3.50;;
21621;SDS011;10973;46.706;12.340;2022-07-23T12:28:32;3.70;;;3.40;;
21621;SDS011;10973;46.706;12.340;2022-07-23T12:31:00;3.50;;;3.30;;
21621;SDS011;10973;46.706;12.340;2022-07-23T12:33:32;3.72;;;3.40;;
21621;SDS011;10973;46.706;12.340;2022-07-23T12:36:03;3.47;;;3.28;;
21621;SDS011;10973;46.706;12.340;2022-07-23T12:38:37;3.55;;;3.30;;
21621;SDS011;10973;46.706;12.340;2022-07-23T12:41:06;3.38;;;3.00;;
21621;SDS011;10973;46.706;12.340;2022-07-23T12:43:36;3.67;;;3.47;;
21621;SDS011;10973;46.706;12.340;2022-07-23T12:46:15;4.20;;;3.38;;
21621;SDS011;10973;46.706;12.340;2022-07-23T12:51:16;3.83;;;3.53;;
21621;SDS011;10973;46.706;12.340;2022-07-23T12:53:53;3.88;;;3.67;;
21621;SDS011;10973;46.706;12.340;2022-07-23T12:56:29;3.42;;;3.22;;
21621;SDS011;10973;46.706;12.340;2022-07-23T12:59:04;3.40;;;3.20;;
21621;SDS011;10973;46.706;12.340;2022-07-23T13:01:43;4.03;;;3.72;;
21621;SDS011;10973;46.706;12.340;2022-07-23T13:04:24;3.80;;;3.60;;
21621;SDS011;10973;46.706;12.340;2022-07-23T13:06:54;3.58;;;3.38;;
21621;SDS011;10973;46.706;12.340;2022-07-23T13:09:26;4.18;;;3.70;;
21621;SDS011;10973;46.706;12.340;2022-07-23T13:11:59;3.97;;;3.67;;
21621;SDS011;10973;46.706;12.340;2022-07-23T13:14:27;3.90;;;3.70;;
21621;SDS011;10973;46.706;12.340;2022-07-23T13:16:55;3.55;;;3.35;;
21621;SDS011;10973;46.706;12.340;2022-07-23T13:19:25;3.47;;;3.17;;
21621;SDS011;10973;46.706;12.340;2022-07-23T13:21:53;3.88;;;3.53;;
21621;SDS011;10973;46.706;12.340;2022-07-23T13:24:21;3.83;;;3.63;;
21621;SDS011;10973;46.706;12.340;2022-07-23T13:26:49;5.93;;;3.90;;
21621;SDS011;10973;46.706;12.340;2022-07-23T13:29:18;3.65;;;3.35;;
21621;SDS011;10973;46.706;12.340;2022-07-23T13:31:47;3.50;;;3.30;;
21621;SDS011;10973;46.706;12.340;2022-07-23T13:34:15;3.55;;;3.30;;
21621;SDS011;10973;46.706;12.340;2022-07-23T13:36:42;3.92;;;3.72;;
21621;SDS011;10973;46.706;12.340;2022-07-23T13:39:10;3.70;;;3.50;;
21621;SDS011;10973;46.706;12.340;2022-07-23T13:41:38;3.65;;;3.45;;
21621;SDS011;10973;46.706;12.340;2022-07-23T13:44:15;4.18;;;3.80;;
21621;SDS011;10973;46.706;12.340;2022-07-23T13:46:42;4.00;;;3.70;;
21621;SDS011;10973;46.706;12.340;2022-07-23T13:49:10;3.97;;;3.78;;
21621;SDS011;10973;46.706;12.340;2022-07-23T13:51:39;4.15;;;3.85;;
21621;SDS011;10973;46.706;12.340;2022-07-23T13:54:07;4.20;;;3.90;;
21621;SDS011;10973;46.706;12.340;2022-07-23T13:56:35;3.75;;;3.55;;
21621;SDS011;10973;46.706;12.340;2022-07-23T13:59:03;4.00;;;3.70;;
21621;SDS011;10973;46.706;12.340;2022-07-23T14:01:32;3.60;;;3.33;;
21621;SDS011;10973;46.706;12.340;2022-07-23T14:04:20;3.90;;;3.70;;
21621;SDS011;10973;46.706;12.340;2022-07-23T14:06:48;4.30;;;3.90;;
21621;SDS011;10973;46.706;12.340;2022-07-23T14:09:20;3.50;;;3.30;;
21621;SDS011;10973;46.706;12.340;2022-07-23T14:11:48;4.35;;;3.53;;
21621;SDS011;10973;46.706;12.340;2022-07-23T14:14:16;4.00;;;3.80;;
21621;SDS011;10973;46.706;12.340;2022-07-23T14:16:44;5.20;;;4.10;;
21621;SDS011;10973;46.706;12.340;2022-07-23T14:19:11;9.07;;;4.55;;
21621;SDS011;10973;46.706;12.340;2022-07-23T14:21:39;6.93;;;4.43;;
21621;SDS011;10973;46.706;12.340;2022-07-23T14:24:07;5.75;;;4.22;;
21621;SDS011;10973;46.706;12.340;2022-07-23T14:26:36;4.57;;;4.20;;
21621;SDS011;10973;46.706;12.340;2022-07-23T14:29:03;4.78;;;4.18;;
21621;SDS011;10973;46.706;12.340;2022-07-23T14:31:33;6.70;;;4.90;;
21621;SDS011;10973;46.706;12.340;2022-07-23T14:34:01;4.85;;;4.38;;
21621;SDS011;10973;46.706;12.340;2022-07-23T14:36:29;6.07;;;5.03;;
21621;SDS011;10973;46.706;12.340;2022-07-23T14:38:56;5.72;;;5.22;;
21621;SDS011;10973;46.706;12.340;2022-07-23T14:41:24;5.32;;;4.80;;
21621;SDS011;10973;46.706;12.340;2022-07-23T14:43:53;5.68;;;4.93;;
21621;SDS011;10973;46.706;12.340;2022-07-23T14:46:22;5.47;;;5.05;;
21621;SDS011;10973;46.706;12.340;2022-07-23T14:48:49;5.50;;;5.00;;
21621;SDS011;10973;46.706;12.340;2022-07-23T14:51:17;5.82;;;4.65;;
21621;SDS011;10973;46.706;12.340;2022-07-23T14:53:44;5.20;;;4.70;;
21621;SDS011;10973;46.706;12.340;2022-07-23T14:56:12;5.00;;;4.60;;
21621;SDS011;10973;46.706;12.340;2022-07-23T14:58:40;11.25;;;7.32;;
21621;SDS011;10973;46.706;12.340;2022-07-23T15:01:08;10.93;;;7.18;;
21621;SDS011;10973;46.706;12.340;2022-07-23T15:03:37;19.15;;;8.57;;
21621;SDS011;10973;46.706;12.340;2022-07-23T15:06:09;9.23;;;6.93;;
21621;SDS011;10973;46.706;12.340;2022-07-23T15:08:38;8.75;;;6.25;;
21621;SDS011;10973;46.706;12.340;2022-07-23T15:11:06;7.30;;;6.28;;
21621;SDS011;10973;46.706;12.340;2022-07-23T15:13:33;9.18;;;6.72;;
21621;SDS011;10973;46.706;12.340;2022-07-23T15:16:02;11.05;;;7.18;;
21621;SDS011;10973;46.706;12.340;2022-07-23T15:18:32;13.50;;;7.47;;
21621;SDS011;10973;46.706;12.340;2022-07-23T15:21:01;13.40;;;7.32;;
21621;SDS011;10973;46.706;12.340;2022-07-23T15:23:34;10.43;;;6.70;;
21621;SDS011;10973;46.706;12.340;2022-07-23T15:26:02;7.38;;;6.55;;
21621;SDS011;10973;46.706;12.340;2022-07-23T15:28:30;7.63;;;6.13;;
21621;SDS011;10973;46.706;12.340;2022-07-23T15:30:57;9.88;;;6.57;;
21621;SDS011;10973;46.706;12.340;2022-07-23T15:33:24;8.82;;;6.90;;